Kezdőlap
METAR-TAF:

METAR-TAF

Repülőterek :

Csita, Oroszország

földrajzi szélesség: 52-05N, földrajzi hosszúság: 113-29E, magasság: 685 m

Jelenlegi meteorológiai megfigyelések

A jelentés 18 perccel ezelõtt készült, 23:00 UTC
Északi szél 4 kt
Hőmérséklet -6°C
Páratartalom 86%
Légköri nyomás 1018 hPa
Látótávolság 10 km, vagy több

METAR: UIAA 242300Z 01002MPS 9999 NSC M06/M08 Q1018 R29/70D NOSIG RMK QFE705/0940

Idő: 08:18 (23:18 UTC)

Előrejelzés

A jelentés 3 órával és 18 perccel ezelõtt készült, 20:00 UTC
Az előrejelzés 24-én 21 óra UTC és 25-én 21 óra UTC között érvényes
Észak-északkeleti szél 6 kt
Látótávolság 10 km, vagy több
24-én 21 óra UTC és 25-én 03 óra UTC között ideiglenes
Látótávolság: 3100 m
Párásság, füst
25-én 03 óra UTC és 25-én 21 óra UTC között ideiglenes
Délkeleti szél 10 kt

TAF: UIAA 242000Z 2421/2521 02003MPS 9999 NSC TEMPO 2421/2503 3100 BR FU TEMPO 2503/2521 14005MPS

Meteorológiai megfigyelések és előrejelzések több, mint 4000 repülőtéren (METAR és TAF jelentéseket).

A térképen piros és sárga pontok jelzik az elérhető meteorológiai állomásokat.

Mozgassa az egeret a pont fölött, hogy megjelenjen az állomás neve.

Azután kattintson az időjárási megfigyelések és előrejelzések megtekintéséhez.

A térkép megváltoztatása: kattintson a fekete keresztel jelölt zöld gombra ráközelítéshez, a vonallal jelölt zöld gombra távolításhoz, vagy a zöld nyilakra a szomszédos térképek eléréséhez.


METAR-TAF: